sensor_id;sensor_type;location;lat;lon;timestamp;P1;durP1;ratioP1;P2;durP2;ratioP2
49710;SDS011;35602;44.534;18.696;2022-11-20T00:02:00;72.20;;;60.40;;
49710;SDS011;35602;44.534;18.696;2022-11-20T00:07:00;71.32;;;58.47;;
49710;SDS011;35602;44.534;18.696;2022-11-20T00:12:01;72.85;;;60.58;;
49710;SDS011;35602;44.534;18.696;2022-11-20T00:17:02;71.05;;;59.38;;
49710;SDS011;35602;44.534;18.696;2022-11-20T00:22:03;68.45;;;56.95;;
49710;SDS011;35602;44.534;18.696;2022-11-20T00:27:04;66.72;;;57.40;;
49710;SDS011;35602;44.534;18.696;2022-11-20T00:32:04;66.00;;;55.67;;
49710;SDS011;35602;44.534;18.696;2022-11-20T00:37:05;63.85;;;55.60;;
49710;SDS011;35602;44.534;18.696;2022-11-20T00:42:06;64.45;;;54.50;;
49710;SDS011;35602;44.534;18.696;2022-11-20T00:47:07;62.67;;;52.62;;
49710;SDS011;35602;44.534;18.696;2022-11-20T00:52:07;61.85;;;54.03;;
49710;SDS011;35602;44.534;18.696;2022-11-20T00:57:08;61.72;;;53.38;;
49710;SDS011;35602;44.534;18.696;2022-11-20T01:02:09;60.63;;;51.10;;
49710;SDS011;35602;44.534;18.696;2022-11-20T01:07:10;60.25;;;51.22;;
49710;SDS011;35602;44.534;18.696;2022-11-20T01:12:11;59.42;;;50.70;;
49710;SDS011;35602;44.534;18.696;2022-11-20T01:17:11;57.33;;;49.35;;
49710;SDS011;35602;44.534;18.696;2022-11-20T01:22:12;56.15;;;48.10;;
49710;SDS011;35602;44.534;18.696;2022-11-20T01:27:13;56.13;;;47.92;;
49710;SDS011;35602;44.534;18.696;2022-11-20T01:32:14;58.28;;;49.75;;
49710;SDS011;35602;44.534;18.696;2022-11-20T01:37:14;57.42;;;48.97;;
49710;SDS011;35602;44.534;18.696;2022-11-20T01:42:15;52.58;;;45.88;;
49710;SDS011;35602;44.534;18.696;2022-11-20T01:47:36;53.85;;;46.05;;
49710;SDS011;35602;44.534;18.696;2022-11-20T01:52:49;53.08;;;45.50;;
49710;SDS011;35602;44.534;18.696;2022-11-20T01:58:02;52.83;;;45.33;;
49710;SDS011;35602;44.534;18.696;2022-11-20T02:03:05;51.67;;;44.38;;
49710;SDS011;35602;44.534;18.696;2022-11-20T02:08:13;50.25;;;44.10;;
49710;SDS011;35602;44.534;18.696;2022-11-20T02:13:14;50.22;;;43.53;;
49710;SDS011;35602;44.534;18.696;2022-11-20T02:18:35;51.08;;;44.15;;
49710;SDS011;35602;44.534;18.696;2022-11-20T02:23:38;49.03;;;41.70;;
49710;SDS011;35602;44.534;18.696;2022-11-20T02:28:43;45.55;;;40.30;;
49710;SDS011;35602;44.534;18.696;2022-11-20T02:33:44;48.87;;;42.08;;
49710;SDS011;35602;44.534;18.696;2022-11-20T02:38:45;46.83;;;40.45;;
49710;SDS011;35602;44.534;18.696;2022-11-20T02:43:45;46.10;;;39.63;;
49710;SDS011;35602;44.534;18.696;2022-11-20T02:48:46;47.08;;;41.08;;
49710;SDS011;35602;44.534;18.696;2022-11-20T02:53:47;45.03;;;39.50;;
49710;SDS011;35602;44.534;18.696;2022-11-20T02:58:48;44.03;;;38.40;;
49710;SDS011;35602;44.534;18.696;2022-11-20T03:03:49;43.92;;;37.88;;
49710;SDS011;35602;44.534;18.696;2022-11-20T03:08:50;46.83;;;40.83;;
49710;SDS011;35602;44.534;18.696;2022-11-20T03:13:50;42.60;;;38.00;;
49710;SDS011;35602;44.534;18.696;2022-11-20T03:18:52;43.95;;;38.15;;
49710;SDS011;35602;44.534;18.696;2022-11-20T03:23:53;43.63;;;37.47;;
49710;SDS011;35602;44.534;18.696;2022-11-20T03:28:56;41.80;;;36.20;;
49710;SDS011;35602;44.534;18.696;2022-11-20T03:33:58;40.33;;;35.67;;
49710;SDS011;35602;44.534;18.696;2022-11-20T03:38:59;40.78;;;34.65;;
49710;SDS011;35602;44.534;18.696;2022-11-20T03:44:01;38.97;;;34.45;;
49710;SDS011;35602;44.534;18.696;2022-11-20T03:49:04;38.50;;;34.10;;
49710;SDS011;35602;44.534;18.696;2022-11-20T03:54:08;37.90;;;33.10;;
49710;SDS011;35602;44.534;18.696;2022-11-20T03:59:09;39.08;;;34.35;;
49710;SDS011;35602;44.534;18.696;2022-11-20T04:04:10;36.38;;;32.08;;
49710;SDS011;35602;44.534;18.696;2022-11-20T04:09:11;35.80;;;31.62;;
49710;SDS011;35602;44.534;18.696;2022-11-20T04:14:14;35.63;;;31.70;;
49710;SDS011;35602;44.534;18.696;2022-11-20T04:19:15;37.00;;;32.25;;
49710;SDS011;35602;44.534;18.696;2022-11-20T04:24:17;34.85;;;31.00;;
49710;SDS011;35602;44.534;18.696;2022-11-20T04:29:18;33.65;;;29.70;;
49710;SDS011;35602;44.534;18.696;2022-11-20T04:34:18;34.13;;;30.23;;
49710;SDS011;35602;44.534;18.696;2022-11-20T04:39:19;33.22;;;29.42;;
49710;SDS011;35602;44.534;18.696;2022-11-20T04:44:20;34.08;;;29.48;;
49710;SDS011;35602;44.534;18.696;2022-11-20T04:49:21;33.15;;;29.40;;
49710;SDS011;35602;44.534;18.696;2022-11-20T04:54:22;33.45;;;29.27;;
49710;SDS011;35602;44.534;18.696;2022-11-20T04:59:22;33.28;;;29.63;;
49710;SDS011;35602;44.534;18.696;2022-11-20T05:04:23;31.95;;;27.83;;
49710;SDS011;35602;44.534;18.696;2022-11-20T05:09:24;30.27;;;27.00;;
49710;SDS011;35602;44.534;18.696;2022-11-20T05:14:25;30.50;;;26.83;;
49710;SDS011;35602;44.534;18.696;2022-11-20T05:19:26;30.80;;;27.50;;
49710;SDS011;35602;44.534;18.696;2022-11-20T05:24:27;29.45;;;26.25;;
49710;SDS011;35602;44.534;18.696;2022-11-20T05:29:27;29.23;;;26.12;;
49710;SDS011;35602;44.534;18.696;2022-11-20T05:34:28;29.87;;;26.67;;
49710;SDS011;35602;44.534;18.696;2022-11-20T05:39:29;29.45;;;26.25;;
49710;SDS011;35602;44.534;18.696;2022-11-20T05:44:30;28.12;;;24.92;;
49710;SDS011;35602;44.534;18.696;2022-11-20T05:49:31;28.95;;;25.88;;
49710;SDS011;35602;44.534;18.696;2022-11-20T05:54:32;29.33;;;25.45;;
49710;SDS011;35602;44.534;18.696;2022-11-20T05:59:33;27.50;;;24.55;;
49710;SDS011;35602;44.534;18.696;2022-11-20T06:04:34;26.92;;;24.02;;
49710;SDS011;35602;44.534;18.696;2022-11-20T06:09:34;27.80;;;24.80;;
49710;SDS011;35602;44.534;18.696;2022-11-20T06:14:35;26.40;;;23.48;;
49710;SDS011;35602;44.534;18.696;2022-11-20T06:19:36;26.25;;;23.42;;
49710;SDS011;35602;44.534;18.696;2022-11-20T06:24:37;26.17;;;23.05;;
49710;SDS011;35602;44.534;18.696;2022-11-20T06:29:37;25.88;;;22.80;;
49710;SDS011;35602;44.534;18.696;2022-11-20T06:34:38;24.73;;;22.02;;
49710;SDS011;35602;44.534;18.696;2022-11-20T06:39:39;26.85;;;23.83;;
49710;SDS011;35602;44.534;18.696;2022-11-20T06:44:40;25.20;;;22.50;;
49710;SDS011;35602;44.534;18.696;2022-11-20T06:49:41;25.67;;;22.87;;
49710;SDS011;35602;44.534;18.696;2022-11-20T06:54:42;25.37;;;22.62;;
49710;SDS011;35602;44.534;18.696;2022-11-20T06:59:42;24.48;;;21.87;;
49710;SDS011;35602;44.534;18.696;2022-11-20T07:04:43;24.48;;;21.87;;
49710;SDS011;35602;44.534;18.696;2022-11-20T07:09:44;24.35;;;21.70;;
49710;SDS011;35602;44.534;18.696;2022-11-20T07:14:45;24.08;;;21.55;;
49710;SDS011;35602;44.534;18.696;2022-11-20T07:19:45;24.52;;;21.15;;
49710;SDS011;35602;44.534;18.696;2022-11-20T07:24:46;25.67;;;22.73;;
49710;SDS011;35602;44.534;18.696;2022-11-20T07:29:48;25.10;;;22.10;;
49710;SDS011;35602;44.534;18.696;2022-11-20T07:34:49;24.42;;;21.83;;
49710;SDS011;35602;44.534;18.696;2022-11-20T07:39:50;26.10;;;22.37;;
49710;SDS011;35602;44.534;18.696;2022-11-20T07:44:51;24.48;;;21.73;;
49710;SDS011;35602;44.534;18.696;2022-11-20T07:49:51;25.27;;;22.58;;
49710;SDS011;35602;44.534;18.696;2022-11-20T07:54:52;24.52;;;21.92;;
49710;SDS011;35602;44.534;18.696;2022-11-20T07:59:53;24.92;;;22.23;;
49710;SDS011;35602;44.534;18.696;2022-11-20T08:04:54;26.58;;;22.87;;
49710;SDS011;35602;44.534;18.696;2022-11-20T08:09:54;24.30;;;21.75;;
49710;SDS011;35602;44.534;18.696;2022-11-20T08:14:55;24.45;;;21.83;;
49710;SDS011;35602;44.534;18.696;2022-11-20T08:19:58;25.37;;;22.50;;
49710;SDS011;35602;44.534;18.696;2022-11-20T08:24:59;26.67;;;23.58;;
49710;SDS011;35602;44.534;18.696;2022-11-20T08:30:00;28.42;;;24.37;;
49710;SDS011;35602;44.534;18.696;2022-11-20T08:35:01;27.42;;;23.95;;
49710;SDS011;35602;44.534;18.696;2022-11-20T08:40:02;26.48;;;23.20;;
49710;SDS011;35602;44.534;18.696;2022-11-20T08:45:03;29.00;;;24.35;;
49710;SDS011;35602;44.534;18.696;2022-11-20T08:50:05;29.35;;;24.75;;
49710;SDS011;35602;44.534;18.696;2022-11-20T08:55:07;28.00;;;24.02;;
49710;SDS011;35602;44.534;18.696;2022-11-20T09:00:09;27.60;;;24.27;;
49710;SDS011;35602;44.534;18.696;2022-11-20T09:05:11;29.05;;;25.27;;
49710;SDS011;35602;44.534;18.696;2022-11-20T09:10:12;30.62;;;26.27;;
49710;SDS011;35602;44.534;18.696;2022-11-20T09:15:13;30.50;;;26.45;;
49710;SDS011;35602;44.534;18.696;2022-11-20T09:20:14;30.00;;;25.95;;
49710;SDS011;35602;44.534;18.696;2022-11-20T09:25:16;28.98;;;25.42;;
49710;SDS011;35602;44.534;18.696;2022-11-20T09:30:17;30.05;;;25.17;;
49710;SDS011;35602;44.534;18.696;2022-11-20T09:35:18;31.98;;;27.73;;
49710;SDS011;35602;44.534;18.696;2022-11-20T09:51:20;33.95;;;29.35;;
49710;SDS011;35602;44.534;18.696;2022-11-20T10:02:59;37.47;;;30.77;;
49710;SDS011;35602;44.534;18.696;2022-11-20T10:08:19;38.08;;;31.73;;
49710;SDS011;35602;44.534;18.696;2022-11-20T10:20:15;44.42;;;34.55;;
49710;SDS011;35602;44.534;18.696;2022-11-20T10:25:20;44.15;;;35.80;;
49710;SDS011;35602;44.534;18.696;2022-11-20T10:30:25;43.42;;;37.22;;
49710;SDS011;35602;44.534;18.696;2022-11-20T10:35:43;44.08;;;36.65;;
49710;SDS011;35602;44.534;18.696;2022-11-20T10:40:51;47.47;;;38.13;;
49710;SDS011;35602;44.534;18.696;2022-11-20T10:46:24;44.75;;;37.80;;
49710;SDS011;35602;44.534;18.696;2022-11-20T11:05:50;52.25;;;41.40;;
49710;SDS011;35602;44.534;18.696;2022-11-20T11:11:02;52.30;;;42.15;;
49710;SDS011;35602;44.534;18.696;2022-11-20T11:16:30;54.97;;;43.78;;
49710;SDS011;35602;44.534;18.696;2022-11-20T11:21:30;56.10;;;43.70;;
49710;SDS011;35602;44.534;18.696;2022-11-20T11:26:31;55.47;;;44.30;;
49710;SDS011;35602;44.534;18.696;2022-11-20T11:31:33;57.10;;;44.95;;
49710;SDS011;35602;44.534;18.696;2022-11-20T11:36:34;56.72;;;48.30;;
49710;SDS011;35602;44.534;18.696;2022-11-20T11:41:36;60.47;;;48.25;;
49710;SDS011;35602;44.534;18.696;2022-11-20T11:46:37;60.10;;;48.40;;
49710;SDS011;35602;44.534;18.696;2022-11-20T11:51:41;61.08;;;49.63;;
49710;SDS011;35602;44.534;18.696;2022-11-20T12:04:57;61.90;;;49.45;;
49710;SDS011;35602;44.534;18.696;2022-11-20T12:10:03;58.03;;;48.38;;
49710;SDS011;35602;44.534;18.696;2022-11-20T12:15:08;65.00;;;52.13;;
49710;SDS011;35602;44.534;18.696;2022-11-20T12:20:13;61.08;;;50.72;;
49710;SDS011;35602;44.534;18.696;2022-11-20T12:25:19;66.70;;;52.28;;
49710;SDS011;35602;44.534;18.696;2022-11-20T12:30:24;65.57;;;51.83;;
49710;SDS011;35602;44.534;18.696;2022-11-20T12:36:02;65.25;;;53.67;;
49710;SDS011;35602;44.534;18.696;2022-11-20T12:54:03;70.10;;;56.05;;
49710;SDS011;35602;44.534;18.696;2022-11-20T13:03:38;72.37;;;57.97;;
49710;SDS011;35602;44.534;18.696;2022-11-20T13:08:56;74.72;;;58.50;;
49710;SDS011;35602;44.534;18.696;2022-11-20T13:14:04;74.18;;;58.15;;
49710;SDS011;35602;44.534;18.696;2022-11-20T13:20:42;71.03;;;58.15;;
49710;SDS011;35602;44.534;18.696;2022-11-20T13:25:44;74.22;;;59.20;;
49710;SDS011;35602;44.534;18.696;2022-11-20T13:30:51;73.82;;;59.47;;
49710;SDS011;35602;44.534;18.696;2022-11-20T13:36:03;74.00;;;58.97;;
49710;SDS011;35602;44.534;18.696;2022-11-20T13:41:07;75.82;;;62.50;;
49710;SDS011;35602;44.534;18.696;2022-11-20T13:46:37;77.68;;;59.47;;
49710;SDS011;35602;44.534;18.696;2022-11-20T13:51:45;76.05;;;62.33;;
49710;SDS011;35602;44.534;18.696;2022-11-20T13:57:16;77.70;;;62.30;;
49710;SDS011;35602;44.534;18.696;2022-11-20T14:02:40;76.90;;;61.78;;
49710;SDS011;35602;44.534;18.696;2022-11-20T14:07:42;76.20;;;61.10;;
49710;SDS011;35602;44.534;18.696;2022-11-20T14:12:44;77.05;;;62.38;;
49710;SDS011;35602;44.534;18.696;2022-11-20T14:17:45;77.93;;;64.35;;
49710;SDS011;35602;44.534;18.696;2022-11-20T14:22:52;75.65;;;62.03;;
49710;SDS011;35602;44.534;18.696;2022-11-20T14:27:54;77.15;;;63.67;;
49710;SDS011;35602;44.534;18.696;2022-11-20T14:33:00;76.93;;;61.88;;
49710;SDS011;35602;44.534;18.696;2022-11-20T14:38:03;77.82;;;63.83;;
49710;SDS011;35602;44.534;18.696;2022-11-20T14:43:45;77.40;;;62.72;;
49710;SDS011;35602;44.534;18.696;2022-11-20T14:48:49;73.50;;;59.67;;
49710;SDS011;35602;44.534;18.696;2022-11-20T14:53:54;75.82;;;62.72;;
49710;SDS011;35602;44.534;18.696;2022-11-20T14:58:55;73.05;;;59.75;;
49710;SDS011;35602;44.534;18.696;2022-11-20T15:04:01;78.55;;;62.55;;
49710;SDS011;35602;44.534;18.696;2022-11-20T15:09:12;75.80;;;61.83;;
49710;SDS011;35602;44.534;18.696;2022-11-20T15:14:14;77.87;;;63.45;;
49710;SDS011;35602;44.534;18.696;2022-11-20T15:19:22;75.28;;;60.80;;
49710;SDS011;35602;44.534;18.696;2022-11-20T15:24:24;73.00;;;60.95;;
49710;SDS011;35602;44.534;18.696;2022-11-20T15:29:25;77.43;;;62.97;;
49710;SDS011;35602;44.534;18.696;2022-11-20T15:34:26;76.57;;;61.67;;
49710;SDS011;35602;44.534;18.696;2022-11-20T15:39:27;78.78;;;63.70;;
49710;SDS011;35602;44.534;18.696;2022-11-20T15:44:28;74.72;;;61.22;;
49710;SDS011;35602;44.534;18.696;2022-11-20T15:49:29;75.22;;;60.55;;
49710;SDS011;35602;44.534;18.696;2022-11-20T15:54:30;73.22;;;59.85;;
49710;SDS011;35602;44.534;18.696;2022-11-20T15:59:31;73.18;;;60.10;;
49710;SDS011;35602;44.534;18.696;2022-11-20T16:04:32;76.70;;;61.45;;
49710;SDS011;35602;44.534;18.696;2022-11-20T16:09:33;73.07;;;59.35;;
49710;SDS011;35602;44.534;18.696;2022-11-20T16:14:33;73.37;;;61.30;;
49710;SDS011;35602;44.534;18.696;2022-11-20T16:19:52;73.75;;;61.25;;
49710;SDS011;35602;44.534;18.696;2022-11-20T16:24:53;74.72;;;62.08;;
49710;SDS011;35602;44.534;18.696;2022-11-20T16:29:54;79.93;;;62.97;;
49710;SDS011;35602;44.534;18.696;2022-11-20T16:34:55;78.07;;;60.92;;
49710;SDS011;35602;44.534;18.696;2022-11-20T16:39:56;77.15;;;61.83;;
49710;SDS011;35602;44.534;18.696;2022-11-20T16:44:56;81.10;;;65.55;;
49710;SDS011;35602;44.534;18.696;2022-11-20T16:49:57;79.00;;;64.30;;
49710;SDS011;35602;44.534;18.696;2022-11-20T16:54:58;85.15;;;69.18;;
49710;SDS011;35602;44.534;18.696;2022-11-20T16:59:59;88.30;;;70.95;;
49710;SDS011;35602;44.534;18.696;2022-11-20T17:05:01;85.10;;;70.75;;
49710;SDS011;35602;44.534;18.696;2022-11-20T17:10:02;89.10;;;72.82;;
49710;SDS011;35602;44.534;18.696;2022-11-20T17:15:03;86.12;;;70.32;;
49710;SDS011;35602;44.534;18.696;2022-11-20T17:20:05;85.82;;;71.37;;
49710;SDS011;35602;44.534;18.696;2022-11-20T17:25:06;84.28;;;69.07;;
49710;SDS011;35602;44.534;18.696;2022-11-20T17:30:08;85.85;;;69.75;;
49710;SDS011;35602;44.534;18.696;2022-11-20T17:35:09;92.65;;;73.20;;
49710;SDS011;35602;44.534;18.696;2022-11-20T17:40:10;87.97;;;73.03;;
49710;SDS011;35602;44.534;18.696;2022-11-20T17:45:10;85.78;;;71.78;;
49710;SDS011;35602;44.534;18.696;2022-11-20T17:50:11;88.32;;;70.78;;
49710;SDS011;35602;44.534;18.696;2022-11-20T17:55:12;88.87;;;73.45;;
49710;SDS011;35602;44.534;18.696;2022-11-20T18:00:13;89.57;;;72.40;;
49710;SDS011;35602;44.534;18.696;2022-11-20T18:05:16;87.07;;;72.37;;
49710;SDS011;35602;44.534;18.696;2022-11-20T18:10:17;90.12;;;72.93;;
49710;SDS011;35602;44.534;18.696;2022-11-20T18:15:18;85.07;;;71.62;;
49710;SDS011;35602;44.534;18.696;2022-11-20T18:20:19;85.40;;;72.43;;
49710;SDS011;35602;44.534;18.696;2022-11-20T18:25:19;88.80;;;73.47;;
49710;SDS011;35602;44.534;18.696;2022-11-20T18:30:20;87.72;;;72.65;;
49710;SDS011;35602;44.534;18.696;2022-11-20T18:35:21;86.85;;;70.80;;
49710;SDS011;35602;44.534;18.696;2022-11-20T18:40:22;85.43;;;70.75;;
49710;SDS011;35602;44.534;18.696;2022-11-20T18:45:23;86.65;;;72.15;;
49710;SDS011;35602;44.534;18.696;2022-11-20T18:50:23;86.90;;;73.32;;
49710;SDS011;35602;44.534;18.696;2022-11-20T18:55:24;87.72;;;72.28;;
49710;SDS011;35602;44.534;18.696;2022-11-20T19:00:25;85.93;;;72.07;;
49710;SDS011;35602;44.534;18.696;2022-11-20T19:05:26;89.13;;;72.00;;
49710;SDS011;35602;44.534;18.696;2022-11-20T19:10:27;86.35;;;72.57;;
49710;SDS011;35602;44.534;18.696;2022-11-20T19:15:27;86.70;;;71.78;;
49710;SDS011;35602;44.534;18.696;2022-11-20T19:20:28;89.07;;;73.35;;
49710;SDS011;35602;44.534;18.696;2022-11-20T19:25:30;90.18;;;75.28;;
49710;SDS011;35602;44.534;18.696;2022-11-20T19:30:31;92.20;;;75.07;;
49710;SDS011;35602;44.534;18.696;2022-11-20T19:35:32;90.07;;;75.30;;
49710;SDS011;35602;44.534;18.696;2022-11-20T19:40:35;92.32;;;75.20;;
49710;SDS011;35602;44.534;18.696;2022-11-20T19:45:36;89.45;;;74.20;;
49710;SDS011;35602;44.534;18.696;2022-11-20T19:50:37;91.90;;;76.78;;
49710;SDS011;35602;44.534;18.696;2022-11-20T19:55:38;91.10;;;75.00;;
49710;SDS011;35602;44.534;18.696;2022-11-20T20:00:38;90.87;;;75.40;;
49710;SDS011;35602;44.534;18.696;2022-11-20T20:05:39;87.57;;;72.12;;
49710;SDS011;35602;44.534;18.696;2022-11-20T20:10:40;88.65;;;74.50;;
49710;SDS011;35602;44.534;18.696;2022-11-20T20:15:41;87.80;;;73.28;;
49710;SDS011;35602;44.534;18.696;2022-11-20T20:20:43;87.07;;;71.72;;
49710;SDS011;35602;44.534;18.696;2022-11-20T20:25:46;87.62;;;74.53;;
49710;SDS011;35602;44.534;18.696;2022-11-20T20:30:47;87.05;;;72.50;;
49710;SDS011;35602;44.534;18.696;2022-11-20T20:35:48;85.53;;;71.93;;
49710;SDS011;35602;44.534;18.696;2022-11-20T20:40:49;85.55;;;70.62;;
49710;SDS011;35602;44.534;18.696;2022-11-20T20:45:50;91.12;;;75.93;;
49710;SDS011;35602;44.534;18.696;2022-11-20T20:50:52;88.20;;;75.22;;
49710;SDS011;35602;44.534;18.696;2022-11-20T20:55:57;87.82;;;72.72;;
49710;SDS011;35602;44.534;18.696;2022-11-20T21:01:03;85.05;;;70.07;;
49710;SDS011;35602;44.534;18.696;2022-11-20T21:06:06;84.93;;;73.47;;
49710;SDS011;35602;44.534;18.696;2022-11-20T21:11:09;84.68;;;71.12;;
49710;SDS011;35602;44.534;18.696;2022-11-20T21:16:16;88.80;;;72.37;;
49710;SDS011;35602;44.534;18.696;2022-11-20T21:21:18;83.18;;;69.20;;
49710;SDS011;35602;44.534;18.696;2022-11-20T21:26:37;84.45;;;70.00;;
49710;SDS011;35602;44.534;18.696;2022-11-20T21:31:38;86.82;;;71.93;;
49710;SDS011;35602;44.534;18.696;2022-11-20T21:36:38;84.78;;;70.05;;
49710;SDS011;35602;44.534;18.696;2022-11-20T21:41:39;83.03;;;69.70;;
49710;SDS011;35602;44.534;18.696;2022-11-20T21:46:42;81.90;;;67.72;;
49710;SDS011;35602;44.534;18.696;2022-11-20T21:51:44;80.55;;;67.20;;
49710;SDS011;35602;44.534;18.696;2022-11-20T21:56:44;79.55;;;65.87;;
49710;SDS011;35602;44.534;18.696;2022-11-20T22:01:45;78.72;;;65.78;;
49710;SDS011;35602;44.534;18.696;2022-11-20T22:06:46;78.57;;;66.45;;
49710;SDS011;35602;44.534;18.696;2022-11-20T22:11:47;77.18;;;65.20;;
49710;SDS011;35602;44.534;18.696;2022-11-20T22:16:49;83.20;;;67.25;;
49710;SDS011;35602;44.534;18.696;2022-11-20T22:21:51;76.30;;;63.55;;
49710;SDS011;35602;44.534;18.696;2022-11-20T22:26:52;72.72;;;61.95;;
49710;SDS011;35602;44.534;18.696;2022-11-20T22:31:52;78.87;;;65.90;;
49710;SDS011;35602;44.534;18.696;2022-11-20T22:36:53;75.32;;;63.45;;
49710;SDS011;35602;44.534;18.696;2022-11-20T22:41:54;74.87;;;62.90;;
49710;SDS011;35602;44.534;18.696;2022-11-20T22:46:55;73.97;;;61.53;;
49710;SDS011;35602;44.534;18.696;2022-11-20T22:51:56;75.28;;;61.37;;
49710;SDS011;35602;44.534;18.696;2022-11-20T22:56:56;69.95;;;59.70;;
49710;SDS011;35602;44.534;18.696;2022-11-20T23:01:57;71.85;;;60.88;;
49710;SDS011;35602;44.534;18.696;2022-11-20T23:06:58;70.47;;;58.87;;
49710;SDS011;35602;44.534;18.696;2022-11-20T23:11:59;73.20;;;62.00;;
49710;SDS011;35602;44.534;18.696;2022-11-20T23:17:00;70.40;;;59.08;;
49710;SDS011;35602;44.534;18.696;2022-11-20T23:22:00;67.20;;;58.50;;
49710;SDS011;35602;44.534;18.696;2022-11-20T23:27:01;68.37;;;57.55;;
49710;SDS011;35602;44.534;18.696;2022-11-20T23:32:02;68.22;;;56.10;;
49710;SDS011;35602;44.534;18.696;2022-11-20T23:37:03;69.47;;;57.62;;
49710;SDS011;35602;44.534;18.696;2022-11-20T23:42:03;68.25;;;56.95;;
49710;SDS011;35602;44.534;18.696;2022-11-20T23:47:04;69.62;;;57.62;;
49710;SDS011;35602;44.534;18.696;2022-11-20T23:52:05;65.95;;;55.55;;
49710;SDS011;35602;44.534;18.696;2022-11-20T23:57:06;65.93;;;54.97;;
